Hauptseite
METAR-TAF:

METAR-TAF

Flughäfen :

Aigen im Ennstal, Österreich

Breite: 47-32N, Länge: 014-08E, Höhe: 638 m

METAR: fehlend

Zeit: 23:30 (21:30 UTC)

Prognose

Neuester Wetterbericht von vor 31 Stunden und 15 Minuten, um 14:15 UTC
Gültige Prognose vom 22 um 15 UTC bis 22 um 24 UTC
Wind 7 kt aus West/Südwest
Sichtweite 10 km oder mehr
Leicht bewölkt in der Höhe von 5000 ft
Aufgelockert bewölkt in der Höhe von 6000 ft
Zeitweise
vom 22 um 15 UTC bis 22 um 19 UTC
Wind 15 kt aus West/Südwest, Böen bis zu 25 kt
Leicht bewölkt in der Höhe von 3000 ft
Aufgelockert bewölkt in der Höhe von 3000 ft
Durchbrochene Bewölkung in der Höhe von 5000 ft
Regenschauer

TAF: LOXA 221415Z 2215/2224 24007KT 9999 FEW050 SCT060 TEMPO 2215/2219 24015G25KT SHRA FEW030 SCT030 BKN050

Wetterbeobachtungen und Prognosen von mehr als 4000 Flughäfen (METAR und TAF Bericht).

Die verfügbaren Stationen werden durch gelbe und rote Markierungen auf der Karte dargestellt.

Führen Sie die Maus auf sie, um den Namen der Station zu sehen.

Darauf klicken, um die Beobachtung von Wetterbeobachtungen und Prognosen zu sehen.

Um die Karte zu ändern : klicken Sie auf den grünen Tasten mit einem schwarzen Kreuz Zum Vergrößern, auf den grünen Button mit einem Gedankenstrich zu verkleinern, oder auf die grünen Pfeile für benachbarte Karten.


METAR-TAF: